Time;durP1;ratioP1;P1;durP2;ratioP2;P2;SDS_P1;SDS_P2;PMS_P1;PMS_P2;Temp;Humidity;BMP_temperature;BMP_pressure;BME280_temperature;BME280_humidity;BME280_pressure;Samples;Min_cycle;Max_cycle;Signal;HPM_P1;HPM_P2
2023/10/12 00:00:24;;;;;;;5.53;2.20;;;;;;;15.96;64.48;100271.00;6133460;23;20028;-81
2023/10/12 00:02:48;;;;;;;5.80;2.38;;;;;;;16.21;63.38;100272.63;6131538;23;20029;-81
2023/10/12 00:05:18;;;;;;;4.57;2.20;;;;;;;16.54;62.22;100266.84;6140011;23;20022;-82
2023/10/12 00:07:49;;;;;;;5.20;2.20;;;;;;;16.41;62.35;100266.50;6087987;23;20126;-81
2023/10/12 00:12:44;;;;;;;5.22;2.60;;;;;;;16.38;62.71;100265.75;6106246;23;20029;-81
2023/10/12 00:17:46;;;;;;;;;;;;;;;16.47;62.52;100257.44;6132397;23;20100;-81
2023/10/12 00:23:13;;;;;;;3.00;1.80;;;;;;;16.49;62.11;100259.09;6134630;23;20017;-82
2023/10/12 00:25:47;;;;;;;5.30;2.00;;;;;;;16.51;61.87;100256.38;6134140;23;20017;-81
2023/10/12 00:28:18;;;;;;;4.38;1.92;;;;;;;16.34;62.41;100255.31;6139375;23;20096;-83
2023/10/12 00:30:47;;;;;;;3.33;2.00;;;;;;;16.84;60.41;100256.72;6113590;23;20029;-82
2023/10/12 00:33:14;;;;;;;6.10;2.03;;;;;;;17.77;57.41;100244.56;6115680;23;20432;-81
2023/10/12 00:35:41;;;;;;;3.65;1.77;;;;;;;17.89;56.41;100248.41;6104864;23;20022;-83
2023/10/12 00:38:17;;;;;;;5.68;2.00;;;;;;;17.44;58.10;100252.28;6111613;23;20506;-81
2023/10/12 00:40:59;;;;;;;3.53;1.92;;;;;;;17.37;58.46;100241.13;6115784;23;20025;-82
2023/10/12 00:43:39;;;;;;;4.10;1.98;;;;;;;16.93;59.77;100242.22;6136989;23;20025;-83
2023/10/12 00:48:48;;;;;;;5.20;2.03;;;;;;;16.83;60.26;100251.50;6134217;23;20069;-82
2023/10/12 00:51:16;;;;;;;4.63;1.63;;;;;;;16.77;60.45;100251.75;6114977;23;20017;-81
2023/10/12 00:53:55;;;;;;;4.97;2.53;;;;;;;16.77;60.53;100255.28;6133191;23;20078;-82
2023/10/12 00:56:24;;;;;;;4.07;1.80;;;;;;;16.59;61.05;100248.13;6116835;23;20026;-81
2023/10/12 00:58:55;;;;;;;2.72;1.77;;;;;;;16.40;61.89;100248.03;6107919;23;20025;-81
2023/10/12 01:01:23;;;;;;;4.68;1.92;;;;;;;16.15;62.51;100249.91;6140090;23;20040;-81
2023/10/12 01:03:52;;;;;;;3.72;2.00;;;;;;;15.98;63.39;100250.59;6117856;23;20031;-81
2023/10/12 01:06:28;;;;;;;4.47;1.90;;;;;;;15.94;63.56;100241.06;6138887;23;20028;-81
2023/10/12 01:08:59;;;;;;;4.90;2.22;;;;;;;15.98;63.14;100242.66;6134114;23;20320;-81
2023/10/12 01:11:27;;;;;;;2.80;1.80;;;;;;;16.01;63.14;100243.47;6121526;23;20104;-82
2023/10/12 01:14:17;;;;;;;6.03;2.13;;;;;;;16.12;62.52;100244.75;6099786;23;20040;-81
2023/10/12 01:19:23;;;;;;;5.53;2.13;;;;;;;16.18;62.34;100238.34;6138807;23;20021;-81
2023/10/12 01:22:01;;;;;;;4.18;1.75;;;;;;;16.03;62.74;100238.97;6132409;23;20021;-82
2023/10/12 01:24:30;;;;;;;4.63;1.90;;;;;;;16.48;61.15;100240.59;6136627;23;20013;-81
2023/10/12 01:26:59;;;;;;;4.65;1.70;;;;;;;16.23;62.05;100232.84;6125289;23;20044;-82
2023/10/12 01:29:27;;;;;;;5.57;1.98;;;;;;;15.99;62.99;100228.50;6135758;23;20025;-82
2023/10/12 01:34:36;;;;;;;4.90;1.75;;;;;;;15.74;64.38;100240.97;6094854;23;20399;-80
2023/10/12 01:37:11;;;;;;;4.78;2.25;;;;;;;15.72;63.74;100237.53;6107280;23;20399;-81
2023/10/12 01:39:54;;;;;;;3.13;1.80;;;;;;;15.69;64.19;100242.94;6105870;23;20021;-81
2023/10/12 01:42:21;;;;;;;6.18;2.60;;;;;;;15.57;64.59;100245.16;6140115;23;20029;-82
2023/10/12 01:44:51;;;;;;;7.32;2.08;;;;;;;15.53;65.13;100232.97;6131962;23;20026;-81
2023/10/12 01:47:18;;;;;;;8.38;2.00;;;;;;;15.57;64.57;100236.34;6138370;23;20017;-82
2023/10/12 01:49:48;;;;;;;6.10;2.30;;;;;;;15.43;65.30;100226.31;6132843;23;20028;-81
2023/10/12 01:52:15;;;;;;;4.32;2.33;;;;;;;15.35;65.61;100228.38;6138543;23;20023;-82
2023/10/12 01:54:48;;;;;;;4.30;2.10;;;;;;;15.31;66.38;100238.22;6132121;23;20018;-82
2023/10/12 01:57:26;;;;;;;3.08;1.90;;;;;;;15.53;65.21;100232.97;6139228;23;20020;-82
2023/10/12 02:00:07;;;;;;;6.07;2.30;;;;;;;15.46;65.27;100239.41;6119643;23;20034;-81
2023/10/12 02:02:34;;;;;;;5.10;2.40;;;;;;;15.37;65.79;100239.78;6119223;23;20030;-81
2023/10/12 02:05:01;;;;;;;6.40;2.30;;;;;;;15.26;66.20;100243.66;6119306;23;20264;-81
2023/10/12 02:07:28;;;;;;;6.07;2.22;;;;;;;15.25;66.17;100246.38;6115608;23;20017;-85
2023/10/12 02:09:55;;;;;;;4.40;2.13;;;;;;;15.41;65.27;100244.00;6138659;23;20028;-81
2023/10/12 02:12:25;;;;;;;3.35;2.03;;;;;;;15.56;64.59;100234.63;6140298;23;20026;-80
2023/10/12 02:14:52;;;;;;;5.80;2.00;;;;;;;15.51;65.08;100237.47;6110107;23;20021;-80
2023/10/12 02:17:25;;;;;;;7.18;2.72;;;;;;;15.53;64.89;100234.75;6116043;23;20093;-82
2023/10/12 02:19:53;;;;;;;;;;;;;;;15.54;64.38;100234.69;6082447;23;20017;-82
2023/10/12 02:22:29;;;;;;;5.82;2.05;;;;;;;16.60;59.27;100229.50;6139226;23;19927;-82
2023/10/12 02:25:18;;;;;;;4.10;1.73;;;;;;;17.63;55.15;100226.63;6109302;23;20017;-82
2023/10/12 02:27:54;;;;;;;3.10;1.60;;;;;;;18.03;53.79;100224.72;6119585;23;20051;-83
2023/10/12 02:30:27;;;;;;;4.40;1.70;;;;;;;18.12;53.31;100214.56;6114379;23;20017;-82
2023/10/12 02:33:00;;;;;;;;;;;;;;;18.23;53.56;100212.25;6109623;23;20044;-82
2023/10/12 02:35:36;;;;;;;5.53;2.10;;;;;;;18.42;52.76;100215.69;6136548;23;19923;-83
2023/10/12 02:38:06;;;;;;;4.03;1.63;;;;;;;18.43;52.64;100214.72;6135183;23;20092;-83
2023/10/12 02:40:33;;;;;;;5.72;1.80;;;;;;;18.07;53.98;100242.25;6101654;23;20030;-82
2023/10/12 02:43:00;;;;;;;4.40;1.80;;;;;;;17.47;56.40;100244.22;6129719;23;20022;-83
2023/10/12 02:45:33;;;;;;;4.32;1.90;;;;;;;17.48;56.41;100245.91;6137413;23;20073;-83
2023/10/12 02:48:05;;;;;;;4.60;1.90;;;;;;;16.96;58.93;100252.69;6111972;23;20021;-84
2023/10/12 02:50:48;;;;;;;5.28;1.92;;;;;;;16.63;60.20;100252.34;6083626;23;20029;-83
2023/10/12 02:53:15;;;;;;;3.03;1.67;;;;;;;16.63;59.72;100253.22;6123378;23;20017;-82
2023/10/12 02:55:46;;;;;;;5.95;2.10;;;;;;;16.45;61.18;100262.81;6105426;23;20029;-84
2023/10/12 02:58:23;;;;;;;3.10;1.92;;;;;;;16.29;61.59;100272.31;6138598;23;20021;-83
2023/10/12 03:00:56;;;;;;;4.45;1.73;;;;;;;16.24;61.60;100267.22;6130278;23;20084;-83
2023/10/12 03:05:53;;;;;;;3.38;1.85;;;;;;;16.13;62.15;100269.44;6129920;23;20075;-83
2023/10/12 03:08:22;;;;;;;5.00;1.88;;;;;;;16.05;62.30;100269.75;6139378;23;20028;-82
2023/10/12 03:13:35;;;;;;;5.97;2.13;;;;;;;16.18;61.47;100275.41;6135702;23;20024;-85
2023/10/12 03:16:13;;;;;;;3.30;1.70;;;;;;;16.08;62.29;100280.22;6125329;23;20018;-82
2023/10/12 03:18:42;;;;;;;6.60;1.85;;;;;;;15.99;62.70;100284.09;6130162;23;20040;-82
2023/10/12 03:21:12;;;;;;;3.67;2.00;;;;;;;16.21;61.77;100285.03;6138495;23;20025;-82
2023/10/12 03:23:41;;;;;;;3.53;1.80;;;;;;;16.16;61.70;100290.47;6113453;23;20084;-83
2023/10/12 03:28:53;;;;;;;4.80;2.13;;;;;;;16.10;61.73;100298.69;6130518;23;20036;-84
2023/10/12 03:31:24;;;;;;;4.68;2.00;;;;;;;16.12;62.07;100308.28;6137734;23;20028;-82
2023/10/12 03:33:55;;;;;;;4.20;1.95;;;;;;;16.06;61.77;100323.53;6130408;23;20068;-83
2023/10/12 03:36:26;;;;;;;3.58;1.98;;;;;;;16.09;61.77;100323.41;6138217;23;20423;-82
2023/10/12 03:41:54;;;;;;;4.75;1.70;;;;;;;16.65;59.56;100320.22;6131822;23;20022;-82
2023/10/12 03:45:08;;;;;;;11.65;2.00;;;;;;;16.62;59.67;100323.00;6139810;23;20100;-82
2023/10/12 03:52:21;;;;;;;5.10;2.00;;;;;;;17.46;56.86;100319.41;6139293;23;20018;-83
2023/10/12 04:02:41;;;;;;;3.22;2.00;;;;;;;17.89;55.43;100315.63;6127355;23;20026;-82
2023/10/12 04:05:34;;;;;;;3.30;1.60;;;;;;;17.93;55.36;100308.41;6116095;23;20068;-84
2023/10/12 04:16:09;;;;;;;4.00;1.98;;;;;;;17.89;55.71;100325.38;6133069;23;20615;-81
2023/10/12 04:21:27;;;;;;;3.92;2.20;;;;;;;17.86;55.73;100344.97;6085899;23;20029;-82
2023/10/12 04:27:00;;;;;;;4.25;2.17;;;;;;;17.52;56.90;100335.94;5985499;23;20054;-82
2023/10/12 04:29:30;;;;;;;4.88;2.28;;;;;;;17.15;59.11;100336.72;6043673;23;20467;-82
2023/10/12 04:32:09;;;;;;;4.22;2.05;;;;;;;16.63;61.46;100332.69;6110608;23;20040;-82
2023/10/12 04:34:48;;;;;;;5.93;2.20;;;;;;;16.50;61.88;100336.78;6120292;23;20028;-83
2023/10/12 04:37:22;;;;;;;3.97;2.03;;;;;;;16.46;61.97;100340.47;6127910;23;20049;-82
2023/10/12 04:39:49;;;;;;;7.15;2.30;;;;;;;16.37;62.65;100327.63;6131613;23;20092;-82
2023/10/12 04:42:24;;;;;;;6.18;2.20;;;;;;;16.29;63.12;100333.22;6113894;23;20093;-85
2023/10/12 04:45:29;;;;;;;3.80;2.05;;;;;;;16.22;62.90;100329.97;6131150;23;20058;-82
2023/10/12 04:47:46;;;;;;;3.75;2.20;;;;;;;16.21;63.23;100333.53;6126538;23;20108;-87
2023/10/12 04:50:27;;;;;;;4.15;2.03;;;;;;;16.11;64.00;100348.06;6141720;23;20028;-83
2023/10/12 04:53:11;;;;;;;3.90;1.90;;;;;;;16.06;63.68;100334.13;6135732;23;20021;-83
2023/10/12 04:55:47;;;;;;;6.70;2.38;;;;;;;16.26;62.35;100325.38;6135736;23;20026;-83
2023/10/12 04:58:31;;;;;;;4.13;2.00;;;;;;;16.65;60.85;100322.88;6141667;23;20024;-83
2023/10/12 05:01:13;;;;;;;3.40;1.90;;;;;;;17.16;58.78;100327.81;6136984;23;20021;-85
2023/10/12 05:03:49;;;;;;;6.57;2.33;;;;;;;17.26;58.05;100318.50;6131118;23;20029;-83
2023/10/12 05:06:24;;;;;;;4.95;2.00;;;;;;;17.52;57.38;100322.66;6140931;23;20021;-84
2023/10/12 05:08:54;;;;;;;5.00;1.70;;;;;;;17.61;56.86;100316.06;6133149;23;20017;-90
2023/10/12 05:11:23;;;;;;;3.08;1.92;;;;;;;17.46;57.47;100314.97;6110534;23;20355;-84
2023/10/12 05:13:50;;;;;;;3.60;1.73;;;;;;;17.48;57.30;100318.41;6093431;23;20096;-83
2023/10/12 05:16:17;;;;;;;3.90;2.30;;;;;;;17.57;57.02;100322.44;6142166;23;20045;-83
2023/10/12 05:18:47;;;;;;;5.50;2.10;;;;;;;17.49;57.43;100327.22;6133193;23;20017;-82
2023/10/12 05:21:15;;;;;;;3.75;2.45;;;;;;;17.50;57.31;100326.31;6126038;23;20021;-84
2023/10/12 05:23:41;;;;;;;6.18;2.10;;;;;;;17.59;57.10;100333.84;6087552;23;20030;-83
2023/10/12 05:26:09;;;;;;;5.30;1.88;;;;;;;17.66;56.98;100337.94;6118376;23;20092;-83
2023/10/12 05:28:38;;;;;;;4.32;2.50;;;;;;;17.61;57.14;100332.00;6093982;23;20549;-83
2023/10/12 05:36:10;;;;;;;7.40;2.88;;;;;;;17.65;57.00;100340.66;6105162;23;20023;-83
2023/10/12 05:38:48;;;;;;;6.00;2.10;;;;;;;17.43;58.01;100331.03;6100052;23;20022;-84
2023/10/12 05:41:21;;;;;;;3.20;1.90;;;;;;;17.16;58.83;100336.66;6133128;23;20506;-87
2023/10/12 05:43:48;;;;;;;;;;;;;;;16.92;60.24;100345.66;6108938;23;20089;-83
2023/10/12 05:46:15;;;;;;;3.83;2.38;;;;;;;16.81;60.77;100354.03;6139811;23;19991;-83
2023/10/12 05:48:46;;;;;;;5.60;2.10;;;;;;;16.66;61.03;100359.03;6133428;23;20101;-83
2023/10/12 05:51:15;;;;;;;4.57;2.70;;;;;;;16.64;61.43;100371.50;6141277;23;20104;-83
2023/10/12 05:53:42;;;;;;;5.05;1.98;;;;;;;16.67;61.25;100384.63;6114577;23;20017;-83
2023/10/12 05:56:09;;;;;;;5.38;2.20;;;;;;;16.61;61.47;100376.94;6118191;23;20083;-83
2023/10/12 05:58:38;;;;;;;12.40;3.22;;;;;;;16.38;63.60;100376.97;6134974;23;20025;-82
2023/10/12 06:01:08;;;;;;;8.15;2.15;;;;;;;16.33;63.66;100387.78;6140632;23;20048;-82
2023/10/12 06:03:46;;;;;;;5.07;2.55;;;;;;;16.25;64.40;100376.59;6133567;23;20022;-83
2023/10/12 06:06:14;;;;;;;5.03;2.28;;;;;;;16.21;64.27;100360.00;6140015;23;20013;-82
2023/10/12 06:08:41;;;;;;;5.03;2.28;;;;;;;16.23;63.74;100344.06;6132676;23;20020;-83
2023/10/12 06:11:09;;;;;;;4.93;2.60;;;;;;;16.12;64.12;100339.16;6141454;23;20025;-82
2023/10/12 06:13:42;;;;;;;7.68;3.08;;;;;;;16.01;65.16;100352.00;6135263;23;20039;-82
2023/10/12 06:16:15;;;;;;;4.35;2.33;;;;;;;16.03;64.53;100358.06;6140812;23;20045;-82
2023/10/12 06:18:44;;;;;;;6.68;2.40;;;;;;;15.95;64.74;100364.53;6134153;23;20021;-83
2023/10/12 06:21:18;;;;;;;5.40;2.60;;;;;;;15.87;65.73;100387.75;6140690;23;20022;-87
2023/10/12 06:23:48;;;;;;;6.45;2.50;;;;;;;15.86;65.79;100391.34;6080718;23;20025;-82
2023/10/12 06:26:44;;;;;;;5.47;2.72;;;;;;;15.92;65.80;100400.84;6138140;23;20021;-82
2023/10/12 06:29:07;;;;;;;6.97;2.65;;;;;;;15.71;66.80;100399.81;6137807;23;20025;-84
2023/10/12 06:31:34;;;;;;;6.32;2.72;;;;;;;15.80;65.61;100423.31;6109792;23;20092;-83
2023/10/12 06:34:08;;;;;;;6.10;2.47;;;;;;;15.78;65.90;100425.13;6139636;23;20320;-83
2023/10/12 06:36:37;;;;;;;10.25;2.78;;;;;;;15.77;65.94;100413.69;6131914;23;20068;-83
2023/10/12 06:44:25;;;;;;;6.50;2.65;;;;;;;15.57;67.19;100432.94;6136606;23;20021;-83
2023/10/12 06:46:57;;;;;;;4.95;2.35;;;;;;;15.59;67.07;100435.53;6132431;23;20039;-83
2023/10/12 06:49:32;;;;;;;7.82;3.10;;;;;;;15.59;68.03;100435.53;6139252;23;20021;-82
2023/10/12 06:52:02;;;;;;;5.25;2.55;;;;;;;15.63;66.69;100443.28;6116135;23;20018;-85
2023/10/12 06:54:39;;;;;;;5.88;2.80;;;;;;;15.71;66.57;100440.34;6128612;23;20028;-88
2023/10/12 07:02:27;;;;;;;4.95;2.47;;;;;;;15.56;68.06;100423.25;6136667;23;20018;-89
2023/10/12 07:04:58;;;;;;;6.20;2.80;;;;;;;15.56;68.12;100423.25;6134394;23;20029;-82
2023/10/12 07:07:27;;;;;;;7.80;2.70;;;;;;;15.58;68.21;100424.09;6137822;23;20021;-84
2023/10/12 07:10:12;;;;;;;7.20;2.92;;;;;;;15.59;68.23;100431.09;6131944;23;20021;-82
2023/10/12 07:12:48;;;;;;;9.40;2.90;;;;;;;15.69;67.41;100441.34;6132256;23;20347;-83
2023/10/12 07:15:31;;;;;;;7.35;3.00;;;;;;;15.75;67.71;100444.63;6138807;23;20017;-83
2023/10/12 07:18:05;;;;;;;8.25;2.97;;;;;;;15.80;67.12;100440.06;6132816;23;20029;-83
2023/10/12 07:23:15;;;;;;;6.57;2.90;;;;;;;15.84;67.39;100435.50;6138771;23;20049;-84
2023/10/12 07:25:48;;;;;;;6.88;2.70;;;;;;;15.80;67.90;100441.81;6131460;23;20021;-83
2023/10/12 07:28:32;;;;;;;7.50;2.88;;;;;;;15.86;68.09;100454.84;6138806;23;20021;-84
2023/10/12 07:39:37;;;;;;;7.57;2.90;;;;;;;16.17;66.10;100465.13;6134958;23;20022;-83
2023/10/12 07:42:05;;;;;;;8.30;3.00;;;;;;;16.04;67.63;100457.72;6106048;23;20026;-83
2023/10/12 07:44:42;;;;;;;4.38;2.60;;;;;;;15.98;68.65;100443.78;6118523;23;20036;-83
2023/10/12 07:47:19;;;;;;;7.00;3.10;;;;;;;15.94;68.08;100447.47;6115195;23;20021;-82
2023/10/12 07:49:51;;;;;;;6.07;2.65;;;;;;;15.97;67.94;100452.69;6120826;23;20022;-84
2023/10/12 07:57:19;;;;;;;4.65;2.47;;;;;;;16.07;68.11;100460.25;6139246;23;20021;-85
2023/10/12 08:06:06;;;;;;;5.05;2.60;;;;;;;16.20;67.15;100452.72;6136670;23;20052;-86
2023/10/12 08:21:31;;;;;;;11.63;2.80;;;;;;;16.46;67.23;100438.47;6129372;23;20025;-82
2023/10/12 08:29:18;;;;;;;4.63;2.50;;;;;;;16.61;66.34;100480.25;6129273;23;20028;-84
2023/10/12 08:31:45;;;;;;;7.25;2.60;;;;;;;16.73;65.87;100475.38;6118785;23;20021;-83
2023/10/12 08:39:37;;;;;;;7.85;2.97;;;;;;;16.88;65.89;100469.47;6128257;23;20017;-84
2023/10/12 08:44:59;;;;;;;4.65;3.03;;;;;;;17.00;65.70;100471.66;6134657;23;20020;-85
2023/10/12 08:47:32;;;;;;;9.10;2.83;;;;;;;17.09;65.78;100480.13;6140953;23;20022;-83
2023/10/12 08:52:30;;;;;;;10.52;3.00;;;;;;;17.13;66.32;100465.81;6137591;23;20096;-83
2023/10/12 08:55:03;;;;;;;4.82;2.75;;;;;;;17.23;65.72;100479.56;6109326;23;20032;-83
2023/10/12 08:57:56;;;;;;;5.80;2.80;;;;;;;17.24;66.41;100474.19;6128812;23;20045;-83
2023/10/12 09:03:04;;;;;;;6.97;2.60;;;;;;;17.38;65.16;100470.97;6134807;23;20021;-83
2023/10/12 09:05:33;;;;;;;13.05;3.15;;;;;;;17.44;65.88;100473.34;6133769;23;20025;-83
2023/10/12 09:13:27;;;;;;;7.55;2.65;;;;;;;17.58;66.40;100485.13;6140279;23;20021;-84
2023/10/12 09:15:59;;;;;;;8.10;2.65;;;;;;;17.60;66.36;100492.09;6134915;23;20032;-83
2023/10/12 09:18:33;;;;;;;8.30;2.83;;;;;;;17.59;64.63;100493.03;6139239;23;20017;-87
2023/10/12 09:23:46;;;;;;;6.57;2.65;;;;;;;17.75;64.23;100497.69;6113245;23;20021;-84
2023/10/12 09:26:15;;;;;;;6.25;2.95;;;;;;;17.86;64.22;100496.25;6116063;23;20025;-84
2023/10/12 09:31:53;;;;;;;6.22;2.72;;;;;;;17.90;64.76;100483.75;6107177;23;20018;-83
2023/10/12 09:36:55;;;;;;;4.57;2.50;;;;;;;17.88;64.26;100490.88;6108024;23;20031;-84
2023/10/12 09:39:27;;;;;;;6.63;2.95;;;;;;;17.92;63.35;100499.63;6076402;23;20018;-83
2023/10/12 09:42:09;;;;;;;7.28;2.60;;;;;;;17.98;63.26;100507.31;6135093;23;20021;-84
2023/10/12 09:44:39;;;;;;;11.87;3.30;;;;;;;17.94;64.59;100495.09;6133729;23;20048;-84
2023/10/12 09:47:12;;;;;;;6.30;3.15;;;;;;;17.90;64.46;100499.66;6114595;23;20022;-83
2023/10/12 09:49:46;;;;;;;4.87;2.73;;;;;;;17.93;65.21;100494.25;6134277;23;20053;-84
2023/10/12 09:52:13;;;;;;;6.05;3.15;;;;;;;17.96;65.06;100483.47;6140482;23;20041;-87
2023/10/12 09:54:47;;;;;;;4.93;2.70;;;;;;;18.04;64.58;100486.63;6132584;23;20025;-83
2023/10/12 09:57:50;;;;;;;6.13;2.72;;;;;;;18.10;64.77;100500.56;6114294;23;20088;-83
2023/10/12 10:00:28;;;;;;;4.03;2.42;;;;;;;18.11;64.12;100491.69;6111924;23;20021;-85
2023/10/12 10:02:59;;;;;;;6.65;2.72;;;;;;;18.22;62.66;100503.53;6113977;23;20017;-85
2023/10/12 10:05:54;;;;;;;7.05;2.75;;;;;;;18.34;61.42;100499.44;6113612;23;20064;-88
2023/10/12 10:08:26;;;;;;;7.90;2.55;;;;;;;18.38;61.46;100500.19;6116129;23;20017;-84
2023/10/12 10:11:11;;;;;;;7.25;3.67;;;;;;;18.36;61.26;100510.84;6108748;23;20092;-83
2023/10/12 10:13:47;;;;;;;6.00;2.72;;;;;;;18.32;62.28;100514.59;6107625;23;20466;-83
2023/10/12 10:16:17;;;;;;;5.75;2.80;;;;;;;18.33;62.45;100515.47;6139081;23;20028;-85
2023/10/12 10:19:29;;;;;;;4.10;2.60;;;;;;;18.43;61.16;100522.06;6133070;23;20025;-83
2023/10/12 10:21:51;;;;;;;5.05;2.80;;;;;;;18.41;61.61;100514.16;6109772;23;20029;-85
2023/10/12 10:24:24;;;;;;;6.20;2.80;;;;;;;18.40;61.87;100515.09;6138242;23;20025;-85
2023/10/12 10:27:10;;;;;;;5.07;3.13;;;;;;;18.46;61.98;100523.72;6120197;23;20025;-86
2023/10/12 10:29:53;;;;;;;4.40;2.60;;;;;;;18.48;61.78;100516.53;6131706;23;20022;-85
2023/10/12 10:32:30;;;;;;;6.30;2.80;;;;;;;18.76;59.53;100516.09;6138247;23;20474;-83
2023/10/12 10:35:18;;;;;;;9.00;3.00;;;;;;;18.68;60.22;100523.56;6106161;23;20415;-83
2023/10/12 10:37:58;;;;;;;5.82;2.70;;;;;;;18.70;59.92;100533.19;6133284;23;20021;-83
2023/10/12 10:40:47;;;;;;;4.05;2.50;;;;;;;18.89;58.13;100522.56;6138503;23;20025;-83
2023/10/12 10:43:15;;;;;;;7.32;2.90;;;;;;;19.06;57.62;100497.81;6136192;23;20080;-83
2023/10/12 10:45:56;;;;;;;6.45;2.92;;;;;;;18.99;58.33;100491.06;6105212;23;20109;-84
2023/10/12 10:48:23;;;;;;;4.90;2.60;;;;;;;19.08;57.41;100506.56;6138164;23;20021;-83
2023/10/12 10:51:24;;;;;;;5.65;2.58;;;;;;;19.10;57.61;100530.44;6138518;23;20037;-84
2023/10/12 10:53:52;;;;;;;7.82;2.97;;;;;;;19.03;58.39;100524.56;6132092;23;20027;-83
2023/10/12 10:56:35;;;;;;;5.17;2.40;;;;;;;18.99;58.46;100512.34;6137320;23;20399;-83
2023/10/12 10:59:05;;;;;;;4.72;2.78;;;;;;;18.99;58.77;100515.00;6117059;23;20029;-83
2023/10/12 11:01:32;;;;;;;4.88;2.75;;;;;;;19.04;58.22;100507.66;6101126;23;20021;-83
2023/10/12 11:04:00;;;;;;;6.30;3.00;;;;;;;19.02;58.47;100504.22;6111993;23;20048;-83
2023/10/12 11:06:28;;;;;;;4.90;2.40;;;;;;;19.01;58.98;100498.97;6119845;23;20094;-83
2023/10/12 11:09:14;;;;;;;5.78;2.78;;;;;;;18.94;60.27;100490.44;6122807;23;20017;-85
2023/10/12 11:11:53;;;;;;;4.40;2.53;;;;;;;18.92;59.73;100489.66;6131771;23;20033;-83
2023/10/12 11:14:22;;;;;;;5.22;3.00;;;;;;;18.82;60.70;100483.88;6122965;23;20088;-83
2023/10/12 11:16:50;;;;;;;8.00;2.70;;;;;;;18.82;59.90;100477.72;6131133;23;20036;-83
2023/10/12 11:19:23;;;;;;;6.70;2.75;;;;;;;18.79;60.42;100457.47;6112629;23;20045;-84
2023/10/12 11:21:53;;;;;;;5.32;2.92;;;;;;;18.68;62.50;100460.63;6107431;23;20025;-83
2023/10/12 11:24:23;;;;;;;4.80;2.60;;;;;;;18.69;60.06;100446.41;6112385;23;20017;-83
2023/10/12 11:26:52;;;;;;;5.13;2.83;;;;;;;18.71;60.17;100439.25;6131648;23;20084;-83
2023/10/12 11:29:19;;;;;;;6.25;2.80;;;;;;;18.70;60.48;100463.25;6139249;23;20491;-84
2023/10/12 11:32:16;;;;;;;8.10;2.63;;;;;;;18.64;60.87;100469.72;6081856;23;20021;-82
2023/10/12 11:34:52;;;;;;;4.68;2.70;;;;;;;18.70;60.30;100466.75;6132029;23;20025;-83
2023/10/12 11:37:19;;;;;;;5.30;2.97;;;;;;;18.77;59.63;100457.53;6112499;23;20041;-84
2023/10/12 11:39:50;;;;;;;6.03;2.80;;;;;;;18.75;59.83;100442.59;6131896;23;20033;-84
2023/10/12 11:42:17;;;;;;;4.72;2.60;;;;;;;18.78;60.08;100450.41;6137837;23;20077;-84
2023/10/12 11:44:46;;;;;;;5.82;2.60;;;;;;;18.85;59.32;100461.63;6133059;23;20311;-86
2023/10/12 11:47:23;;;;;;;5.18;2.80;;;;;;;18.89;58.96;100449.94;6138781;23;20041;-83
2023/10/12 11:49:57;;;;;;;7.25;2.58;;;;;;;18.83;59.76;100453.72;6131744;23;20029;-83
2023/10/12 11:52:34;;;;;;;7.28;3.20;;;;;;;18.77;60.77;100451.38;6139548;23;20021;-86
2023/10/12 11:55:06;;;;;;;5.75;2.85;;;;;;;18.86;59.60;100440.31;6123589;23;20343;-82
2023/10/12 11:57:35;;;;;;;4.97;3.10;;;;;;;18.78;60.62;100439.78;6128457;23;20021;-83
2023/10/12 12:00:21;;;;;;;6.03;3.05;;;;;;;18.69;62.40;100435.78;6114138;23;20023;-84
2023/10/12 12:02:53;;;;;;;4.90;2.70;;;;;;;18.55;63.71;100417.88;6134501;23;20346;-83
2023/10/12 12:05:21;;;;;;;4.07;2.80;;;;;;;18.49;62.75;100427.91;6139801;23;20451;-84
2023/10/12 12:07:51;;;;;;;4.65;2.75;;;;;;;18.41;64.68;100426.50;6132268;23;20017;-81
2023/10/12 12:13:08;;;;;;;5.90;2.90;;;;;;;18.45;64.80;100444.94;6138493;23;20031;-81
2023/10/12 12:15:36;;;;;;;8.23;3.10;;;;;;;18.45;63.88;100442.28;6108052;23;20014;-81
2023/10/12 12:18:05;;;;;;;8.55;2.92;;;;;;;18.40;64.64;100440.69;6139919;23;20021;-81
2023/10/12 12:20:39;;;;;;;5.40;2.88;;;;;;;18.45;63.63;100429.00;6132842;23;20021;-81
2023/10/12 12:23:09;;;;;;;6.80;2.78;;;;;;;18.52;63.16;100417.13;6101541;23;20014;-82
2023/10/12 12:25:40;;;;;;;8.43;3.08;;;;;;;18.47;63.83;100412.06;6106894;23;20022;-81
2023/10/12 12:28:08;;;;;;;5.50;2.67;;;;;;;18.45;63.13;100419.25;6140059;23;20093;-81
2023/10/12 12:30:36;;;;;;;5.22;2.60;;;;;;;18.39;64.66;100399.16;6132601;23;20356;-83
2023/10/12 12:33:23;;;;;;;7.72;3.38;;;;;;;18.36;64.78;100379.81;6139201;23;20029;-82
2023/10/12 12:35:59;;;;;;;5.57;2.80;;;;;;;18.31;64.16;100372.09;6132219;23;20025;-81
2023/10/12 12:41:05;;;;;;;4.68;2.75;;;;;;;18.40;64.18;100358.34;6127191;23;20022;-81
2023/10/12 12:43:36;;;;;;;8.07;3.30;;;;;;;18.35;63.59;100347.09;6133707;23;20363;-82
2023/10/12 12:46:05;;;;;;;3.92;2.40;;;;;;;18.27;64.15;100354.56;6139309;23;20112;-82
2023/10/12 12:48:33;;;;;;;6.05;2.90;;;;;;;18.28;64.34;100355.44;6134575;23;20018;-81
2023/10/12 12:51:00;;;;;;;6.70;3.08;;;;;;;18.33;63.12;100359.59;6140637;23;20024;-81
2023/10/12 12:53:28;;;;;;;7.45;2.90;;;;;;;18.34;63.59;100353.34;6137393;23;20013;-85
2023/10/12 12:55:56;;;;;;;8.25;3.10;;;;;;;18.36;63.70;100363.88;6136251;23;20045;-82
2023/10/12 12:58:24;;;;;;;9.18;3.35;;;;;;;18.41;62.60;100365.38;6139730;23;20104;-83
2023/10/12 13:00:52;;;;;;;5.13;2.97;;;;;;;18.43;62.66;100370.63;6133537;23;20027;-82
2023/10/12 13:03:20;;;;;;;4.30;2.55;;;;;;;18.46;62.27;100369.63;6140428;23;20072;-81
2023/10/12 13:05:47;;;;;;;10.32;3.20;;;;;;;18.41;62.39;100362.72;6130636;23;20029;-81
2023/10/12 13:08:16;;;;;;;7.30;2.63;;;;;;;18.38;62.59;100362.88;6137348;23;20028;-82
2023/10/12 13:10:44;;;;;;;6.28;2.85;;;;;;;18.22;63.55;100362.78;6132005;23;20025;-83
2023/10/12 13:13:12;;;;;;;7.05;2.75;;;;;;;18.04;64.89;100359.19;6140136;23;20451;-81
2023/10/12 13:15:42;;;;;;;4.90;2.67;;;;;;;17.90;66.12;100369.59;6133910;23;20025;-82
2023/10/12 13:18:15;;;;;;;7.28;2.97;;;;;;;17.78;66.63;100367.50;6138381;23;20028;-82
2023/10/12 13:20:46;;;;;;;4.30;2.72;;;;;;;17.68;68.20;100359.09;6132353;23;20031;-81
2023/10/12 13:23:21;;;;;;;5.00;2.95;;;;;;;17.69;67.54;100368.78;6139251;23;20029;-81
2023/10/12 13:25:48;;;;;;;5.97;2.90;;;;;;;17.61;69.04;100357.63;6108053;23;20052;-81
2023/10/12 13:28:16;;;;;;;8.88;4.72;;;;;;;17.67;68.26;100354.69;6112255;23;20017;-83
2023/10/12 13:30:44;;;;;;;6.95;3.15;;;;;;;17.73;68.41;100360.59;6108658;23;20120;-83
2023/10/12 13:33:11;;;;;;;6.97;3.78;;;;;;;17.88;67.76;100363.47;6140750;23;20352;-81
2023/10/12 13:35:42;;;;;;;10.30;3.22;;;;;;;18.07;67.03;100364.38;6133125;23;20045;-81
2023/10/12 13:38:09;;;;;;;6.07;2.95;;;;;;;18.20;66.98;100358.47;6135742;23;20025;-81
2023/10/12 13:40:39;;;;;;;7.68;2.95;;;;;;;18.31;65.77;100347.34;6129998;23;20032;-82
2023/10/12 13:43:18;;;;;;;8.68;3.45;;;;;;;18.38;65.45;100344.28;6114080;23;20021;-83
2023/10/12 13:45:48;;;;;;;6.47;3.10;;;;;;;18.46;65.02;100337.75;6133319;23;20104;-82
2023/10/12 13:48:24;;;;;;;5.70;2.83;;;;;;;18.54;65.15;100331.09;6136049;23;20080;-84
2023/10/12 13:51:19;;;;;;;7.07;3.40;;;;;;;18.62;64.25;100336.03;6105848;23;20021;-83
2023/10/12 13:53:49;;;;;;;6.88;2.80;;;;;;;18.67;64.08;100335.78;6115588;23;20054;-82
2023/10/12 13:56:16;;;;;;;6.10;3.03;;;;;;;18.68;64.93;100332.19;6141074;23;20021;-82
2023/10/12 13:58:47;;;;;;;5.20;2.70;;;;;;;18.70;64.45;100330.34;6078687;23;20026;-84
2023/10/12 14:01:14;;;;;;;6.63;4.20;;;;;;;18.67;64.24;100331.34;6123799;23;20035;-83
2023/10/12 14:03:45;;;;;;;7.05;2.67;;;;;;;18.70;64.45;100341.81;6135462;23;20094;-84
2023/10/12 14:06:13;;;;;;;8.05;3.15;;;;;;;18.71;64.70;100338.25;6141023;23;20072;-82
2023/10/12 14:08:40;;;;;;;6.65;3.40;;;;;;;18.71;64.40;100335.59;6133591;23;20021;-82
2023/10/12 14:11:16;;;;;;;7.18;3.10;;;;;;;18.73;64.19;100341.66;6141923;23;20025;-81
2023/10/12 14:13:46;;;;;;;7.80;3.10;;;;;;;18.76;64.51;100349.47;6132830;23;20024;-84